createdAt,value
2022-09-01T00:01:51.107Z,99003.63
2022-09-01T00:04:39.615Z,99002.90
2022-09-01T00:07:32.498Z,99004.20
2022-09-01T00:10:19.906Z,98999.16
2022-09-01T00:13:08.313Z,98994.27
2022-09-01T00:15:56.060Z,98997.20
2022-09-01T00:18:46.904Z,98999.21
2022-09-01T00:21:35.159Z,98997.38
2022-09-01T00:24:25.105Z,98999.38
2022-09-01T00:27:12.960Z,99002.48
2022-09-01T00:30:01.049Z,99002.28
2022-09-01T00:32:48.649Z,99008.36
2022-09-01T00:35:37.402Z,99002.79
2022-09-01T00:38:25.081Z,98997.78
2022-09-01T00:41:13.193Z,98995.87
2022-09-01T00:44:05.369Z,98996.30
2022-09-01T00:46:55.943Z,98994.67
2022-09-01T00:49:43.215Z,98993.33
2022-09-01T00:52:32.923Z,98991.85
2022-09-01T00:55:26.288Z,98996.20
2022-09-01T00:58:19.632Z,98990.22
2022-09-01T01:01:03.648Z,98993.17
2022-09-01T01:03:51.152Z,98987.62
2022-09-01T01:06:39.490Z,98987.55
2022-09-01T01:09:28.912Z,98989.00
2022-09-01T01:12:17.696Z,98986.90
2022-09-01T01:15:07.240Z,98982.05
2022-09-01T01:17:54.824Z,98987.09
2022-09-01T01:21:00.425Z,98988.56
2022-09-01T01:23:51.055Z,98989.47
2022-09-01T01:26:38.352Z,98991.19
2022-09-01T01:29:28.352Z,98995.08
2022-09-01T01:32:15.864Z,98988.34
2022-09-01T01:35:04.943Z,98989.75
2022-09-01T01:37:52.256Z,98984.61
2022-09-01T01:40:41.251Z,98991.06
2022-09-01T01:43:29.282Z,98991.56
2022-09-01T01:46:18.378Z,98985.13
2022-09-01T01:49:06.119Z,98986.16
2022-09-01T01:51:56.383Z,98989.16
2022-09-01T01:54:46.383Z,98987.72
2022-09-01T01:57:35.159Z,98985.73
2022-09-01T02:00:30.268Z,98984.05
2022-09-01T02:03:20.099Z,98984.05
2022-09-01T02:06:10.767Z,98977.78
2022-09-01T02:08:59.194Z,98976.64
2022-09-01T02:11:46.711Z,98975.52
2022-09-01T02:14:33.782Z,98971.95
2022-09-01T02:17:21.482Z,98969.75
2022-09-01T02:20:09.064Z,98971.17
2022-09-01T02:22:56.912Z,98972.61
2022-09-01T02:26:13.998Z,98973.11
2022-09-01T02:28:37.616Z,98972.05
2022-09-01T02:31:27.416Z,98962.89
2022-09-01T02:34:15.784Z,98967.66
2022-09-01T02:37:02.841Z,98970.25
2022-09-01T02:39:50.216Z,98963.77
2022-09-01T02:42:40.664Z,98968.19
2022-09-01T02:45:32.175Z,98967.71
2022-09-01T02:48:21.712Z,98963.78
2022-09-01T02:51:12.488Z,98971.37
2022-09-01T02:54:00.223Z,98967.25
2022-09-01T02:56:48.182Z,98969.00
2022-09-01T02:59:38.712Z,98969.98
2022-09-01T03:02:27.056Z,98966.53
2022-09-01T03:05:16.471Z,98967.49
2022-09-01T03:08:07.569Z,98960.63
2022-09-01T03:10:54.863Z,98964.33
2022-09-01T03:13:42.888Z,98965.76
2022-09-01T03:16:33.519Z,98959.22
2022-09-01T03:19:21.165Z,98959.62
2022-09-01T03:22:08.408Z,98957.91
2022-09-01T03:24:56.575Z,98961.44
2022-09-01T03:27:44.034Z,98951.75
2022-09-01T03:30:34.120Z,98951.66
2022-09-01T03:33:22.729Z,98950.92
2022-09-01T03:36:15.270Z,98955.48
2022-09-01T03:39:02.447Z,98954.36
2022-09-01T03:41:50.137Z,98954.85
2022-09-01T03:44:39.330Z,98960.27
2022-09-01T03:47:27.489Z,98960.96
2022-09-01T03:50:22.367Z,98954.27
2022-09-01T03:53:10.000Z,98954.34
2022-09-01T03:55:59.760Z,98953.16
2022-09-01T03:58:47.920Z,98955.88
2022-09-01T04:01:37.140Z,98954.11
2022-09-01T04:04:24.815Z,98947.82
2022-09-01T04:07:15.537Z,98951.71
2022-09-01T04:10:01.460Z,98958.36
2022-09-01T04:12:48.671Z,98951.50
2022-09-01T04:15:38.472Z,98949.94
2022-09-01T04:18:26.687Z,98954.15
2022-09-01T04:21:14.295Z,98961.47
2022-09-01T04:24:02.969Z,98954.92
2022-09-01T04:26:50.264Z,98958.56
2022-09-01T04:29:38.504Z,98961.63
2022-09-01T04:32:27.600Z,98957.18
2022-09-01T04:35:16.407Z,98957.11
2022-09-01T04:38:04.344Z,98961.22
2022-09-01T04:40:52.784Z,98967.77
2022-09-01T04:43:40.193Z,98971.17
2022-09-01T04:46:30.583Z,98972.09
2022-09-01T04:49:21.754Z,98973.61
2022-09-01T04:52:08.810Z,98975.98
2022-09-01T04:54:56.095Z,98983.91
2022-09-01T04:57:47.176Z,98979.47
2022-09-01T05:00:34.248Z,98975.81
2022-09-01T05:03:23.720Z,98977.41
2022-09-01T05:06:19.907Z,98972.66
2022-09-01T05:09:09.376Z,98972.33
2022-09-01T05:11:58.200Z,98971.09
2022-09-01T05:14:48.977Z,98981.57
2022-09-01T05:17:38.168Z,98981.96
2022-09-01T05:20:27.633Z,98970.94
2022-09-01T05:23:16.848Z,98968.84
2022-09-01T05:26:05.552Z,98967.38
2022-09-01T05:28:55.455Z,98975.84
2022-09-01T05:31:45.412Z,98973.46
2022-09-01T05:34:35.415Z,98980.94
2022-09-01T05:37:23.561Z,98975.45
2022-09-01T05:40:13.199Z,98979.65
2022-09-01T05:43:01.178Z,98977.45
2022-09-01T05:46:05.683Z,98976.28
2022-09-01T05:48:40.438Z,98985.63
2022-09-01T05:51:44.288Z,98974.03
2022-09-01T05:54:23.441Z,98980.50
2022-09-01T05:57:33.159Z,98986.10
2022-09-01T06:00:00.595Z,98979.12
2022-09-01T06:02:49.174Z,98976.08
2022-09-01T06:05:37.497Z,98981.47
2022-09-01T06:08:28.056Z,98976.03
2022-09-01T06:11:17.903Z,98972.25
2022-09-01T06:14:06.176Z,98981.19
2022-09-01T06:16:54.377Z,98974.05
2022-09-01T06:19:42.863Z,98974.59
2022-09-01T06:22:30.919Z,98973.25
2022-09-01T06:25:18.811Z,98971.09
2022-09-01T06:28:08.120Z,98969.11
2022-09-01T06:30:57.456Z,98974.74
2022-09-01T06:33:47.697Z,98973.53
2022-09-01T06:36:39.344Z,98973.55
2022-09-01T06:39:27.104Z,98977.69
2022-09-01T06:42:15.736Z,98984.86
2022-09-01T06:45:03.799Z,98989.42
2022-09-01T06:47:57.759Z,98993.20
2022-09-01T06:53:32.805Z,98998.57
2022-09-01T06:56:21.073Z,98996.80
2022-09-01T06:59:08.665Z,99006.81
2022-09-01T07:04:46.120Z,99016.42
2022-09-01T07:10:26.426Z,99015.89
2022-09-01T07:13:18.374Z,99013.73
2022-09-01T07:18:59.016Z,99017.14
2022-09-01T07:24:35.973Z,99011.69
2022-09-01T07:27:25.591Z,99015.92
2022-09-01T07:30:14.369Z,99015.84
2022-09-01T07:39:48.431Z,99017.37
2022-09-01T07:42:59.051Z,99001.07
2022-09-01T07:44:23.551Z,99031.25
2022-09-01T07:47:20.298Z,99032.41
2022-09-01T07:52:50.488Z,99029.88
2022-09-01T07:55:44.135Z,99030.34
2022-09-01T07:58:31.913Z,99029.75
2022-09-01T08:01:22.344Z,99029.62
2022-09-01T08:04:09.657Z,99034.51
2022-09-01T08:06:57.736Z,99030.91
2022-09-01T08:09:45.185Z,99031.28
2022-09-01T08:12:33.192Z,99032.77
2022-09-01T08:18:10.630Z,99029.50
2022-09-01T08:20:57.895Z,99034.88
2022-09-01T08:23:45.296Z,99034.03
2022-09-01T08:26:32.712Z,99037.62
2022-09-01T08:29:20.098Z,99039.09
2022-09-01T08:32:07.505Z,99033.51
2022-09-01T08:34:55.241Z,99027.45
2022-09-01T08:37:43.513Z,99030.69
2022-09-01T08:40:31.476Z,99019.30
2022-09-01T08:43:34.168Z,99028.13
2022-09-01T08:46:25.116Z,99023.39
2022-09-01T08:49:25.683Z,99030.56
2022-09-01T08:52:30.284Z,99027.36
2022-09-01T08:55:30.208Z,99030.23
2022-09-01T08:58:19.111Z,99033.94
2022-09-01T09:01:13.675Z,99032.55
2022-09-01T09:04:25.720Z,99031.30
2022-09-01T09:07:19.161Z,99025.93
2022-09-01T09:10:24.173Z,99025.03
2022-09-01T09:16:21.659Z,99022.95
2022-09-01T09:19:11.977Z,99019.72
2022-09-01T09:22:02.014Z,99018.87
2022-09-01T09:25:17.430Z,99011.34
2022-09-01T09:28:04.482Z,99011.33
2022-09-01T09:30:51.886Z,99013.92
2022-09-01T09:33:52.107Z,99019.26
2022-09-01T09:36:38.254Z,99019.80
2022-09-01T09:39:25.625Z,99025.45
2022-09-01T09:42:16.201Z,99017.05
2022-09-01T09:45:04.496Z,99013.08
2022-09-01T09:47:52.362Z,99003.75
2022-09-01T09:50:43.032Z,99013.62
2022-09-01T09:53:35.915Z,99013.88
2022-09-01T09:56:25.752Z,99026.56
2022-09-01T09:59:56.703Z,99009.66
2022-09-01T10:02:27.886Z,99011.94
2022-09-01T10:05:30.615Z,99018.37
2022-09-01T10:08:37.575Z,99022.96
2022-09-01T10:11:42.172Z,99014.18
2022-09-01T10:14:52.207Z,99011.39
2022-09-01T10:17:43.642Z,99007.19
2022-09-01T10:20:30.880Z,99010.45
2022-09-01T10:23:18.762Z,99002.97
2022-09-01T10:26:20.952Z,99005.17
2022-09-01T10:29:17.161Z,99005.88
2022-09-01T10:32:31.309Z,99001.68
2022-09-01T10:34:59.670Z,99001.30
2022-09-01T10:37:48.425Z,99006.98
2022-09-01T10:40:43.376Z,99013.01
2022-09-01T10:43:37.465Z,99011.11
2022-09-01T10:46:49.408Z,99005.70
2022-09-01T10:49:27.809Z,99008.41
2022-09-01T10:52:16.304Z,98992.63
2022-09-01T10:55:04.904Z,99000.02
2022-09-01T11:01:13.433Z,98996.72
2022-09-01T11:04:00.737Z,98999.88
2022-09-01T11:09:45.835Z,98997.67
2022-09-01T11:12:42.038Z,98998.06
2022-09-01T11:15:38.151Z,98996.66
2022-09-01T11:18:31.491Z,98989.81
2022-09-01T11:21:25.775Z,98988.33
2022-09-01T11:24:42.782Z,98989.05
2022-09-01T11:27:52.067Z,98995.31
2022-09-01T11:30:55.556Z,98987.09
2022-09-01T11:34:03.824Z,98991.86
2022-09-01T11:37:01.273Z,98978.22
2022-09-01T11:39:50.512Z,98975.73
2022-09-01T11:42:46.603Z,98981.92
2022-09-01T11:45:35.106Z,98981.64
2022-09-01T11:48:22.697Z,98978.56
2022-09-01T11:51:14.511Z,98977.03
2022-09-01T11:54:00.844Z,98979.70
2022-09-01T11:56:48.264Z,98993.20
2022-09-01T11:59:36.991Z,98981.09
2022-09-01T12:02:27.602Z,98978.42
2022-09-01T12:05:30.214Z,98978.69
2022-09-01T12:08:22.960Z,98976.36
2022-09-01T12:11:13.841Z,98964.41
2022-09-01T12:14:07.678Z,98961.11
2022-09-01T12:17:05.353Z,98956.97
2022-09-01T12:19:54.449Z,98966.70
2022-09-01T12:22:43.688Z,98960.38
2022-09-01T12:25:33.632Z,98963.19
2022-09-01T12:28:21.104Z,98974.64
2022-09-01T12:31:17.650Z,98972.47
2022-09-01T12:34:04.996Z,98973.83
2022-09-01T12:37:10.944Z,98960.48
2022-09-01T12:40:00.838Z,98960.66
2022-09-01T12:42:53.155Z,98957.52
2022-09-01T12:45:48.240Z,98957.11
2022-09-01T12:48:38.271Z,98956.91
2022-09-01T12:51:31.019Z,98956.50
2022-09-01T12:54:15.080Z,98950.58
2022-09-01T12:57:02.476Z,98952.72
2022-09-01T12:59:50.289Z,98961.56
2022-09-01T13:02:46.230Z,98949.16
2022-09-01T13:05:42.551Z,98946.17
2022-09-01T13:08:37.782Z,98951.67
2022-09-01T13:11:25.399Z,98947.69
2022-09-01T13:14:13.375Z,98946.55
2022-09-01T13:17:01.385Z,98943.73
2022-09-01T13:19:48.512Z,98944.53
2022-09-01T13:22:37.519Z,98948.41
2022-09-01T13:25:25.343Z,98940.03
2022-09-01T13:28:13.758Z,98942.25
2022-09-01T13:34:10.791Z,98931.08
2022-09-01T13:36:46.084Z,98942.34
2022-09-01T13:39:32.639Z,98941.56
2022-09-01T13:42:20.313Z,98936.04
2022-09-01T13:45:08.224Z,98932.02
2022-09-01T13:51:19.321Z,98931.66
2022-09-01T13:53:38.506Z,98928.44
2022-09-01T13:56:26.282Z,98933.16
2022-09-01T13:59:13.656Z,98938.84
2022-09-01T14:02:01.860Z,98934.78
2022-09-01T14:04:49.403Z,98934.34
2022-09-01T14:07:37.675Z,98940.17
2022-09-01T14:10:25.831Z,98940.70
2022-09-01T14:13:14.096Z,98939.27
2022-09-01T14:16:02.130Z,98941.19
2022-09-01T14:18:49.536Z,98935.16
2022-09-01T14:21:37.584Z,98938.87
2022-09-01T14:24:27.000Z,98941.24
2022-09-01T14:27:14.464Z,98937.89
2022-09-01T14:30:01.737Z,98941.70
2022-09-01T14:32:49.122Z,98950.88
2022-09-01T14:35:39.071Z,98950.88
2022-09-01T14:38:26.616Z,98950.44
2022-09-01T14:41:23.970Z,98950.38
2022-09-01T14:44:13.258Z,98943.70
2022-09-01T14:47:00.818Z,98946.98
2022-09-01T14:49:48.394Z,99151.96
2022-09-01T14:52:37.282Z,98955.95
2022-09-01T14:55:26.731Z,98954.14
2022-09-01T14:58:14.879Z,98955.38
2022-09-01T15:01:17.456Z,98953.03
2022-09-01T15:03:51.121Z,98956.23
2022-09-01T15:06:38.424Z,98954.41
2022-09-01T15:09:25.448Z,98961.48
2022-09-01T15:12:13.280Z,98961.85
2022-09-01T15:15:02.091Z,98958.69
2022-09-01T15:17:49.800Z,98953.29
2022-09-01T15:20:48.836Z,98955.91
2022-09-01T15:23:36.337Z,98950.58
2022-09-01T15:26:24.128Z,98953.45
2022-09-01T15:29:12.800Z,98950.55
2022-09-01T15:32:01.803Z,98949.25
2022-09-01T15:34:49.360Z,98952.94
2022-09-01T15:37:37.522Z,98938.92
2022-09-01T15:40:26.411Z,98938.27
2022-09-01T15:43:13.848Z,98946.69
2022-09-01T15:46:02.154Z,98941.13
2022-09-01T15:48:50.680Z,98943.81
2022-09-01T15:51:43.072Z,98945.33
2022-09-01T15:54:30.988Z,98947.26
2022-09-01T15:57:18.608Z,98944.48
2022-09-01T16:00:06.658Z,98952.72
2022-09-01T16:02:55.576Z,98953.03
2022-09-01T16:05:43.905Z,98945.67
2022-09-01T16:08:31.067Z,98949.06
2022-09-01T16:11:18.258Z,98948.42
2022-09-01T16:14:06.052Z,98951.78
2022-09-01T16:17:11.600Z,98953.03
2022-09-01T16:20:08.048Z,98954.90
2022-09-01T16:23:10.705Z,98955.95
2022-09-01T16:26:00.396Z,98956.22
2022-09-01T16:28:53.361Z,98958.31
2022-09-01T16:31:42.914Z,98960.55
2022-09-01T16:34:30.904Z,98956.86
2022-09-01T16:37:40.753Z,98963.14
2022-09-01T16:40:41.212Z,98961.75
2022-09-01T16:43:33.329Z,98964.97
2022-09-01T16:46:29.911Z,98961.70
2022-09-01T16:52:22.618Z,98974.71
2022-09-01T16:55:15.736Z,98971.80
2022-09-01T16:58:18.959Z,98977.11
2022-09-01T17:01:10.252Z,98975.99
2022-09-01T17:04:17.576Z,98981.33
2022-09-01T17:07:08.449Z,98979.68
2022-09-01T17:10:16.697Z,98978.16
2022-09-01T17:15:55.696Z,98983.98
2022-09-01T17:18:48.776Z,98990.78
2022-09-01T17:21:49.930Z,98997.80
2022-09-01T17:24:46.041Z,98997.34
2022-09-01T17:27:36.593Z,98994.61
2022-09-01T17:30:23.842Z,98999.64
2022-09-01T17:33:18.654Z,99002.30
2022-09-01T17:36:14.041Z,99009.17
2022-09-01T17:39:26.512Z,99009.06
2022-09-01T17:42:33.873Z,99013.84
2022-09-01T17:45:33.466Z,99015.72
2022-09-01T17:48:29.465Z,99021.44
2022-09-01T17:51:40.619Z,99024.26
2022-09-01T17:54:37.337Z,99028.55
2022-09-01T17:57:38.929Z,99029.78
2022-09-01T18:00:29.033Z,99036.08
2022-09-01T18:03:43.290Z,99039.11
2022-09-01T18:06:38.938Z,99038.95
2022-09-01T18:09:28.282Z,99041.47
2022-09-01T18:12:18.752Z,99043.31
2022-09-01T18:15:12.369Z,99042.75
2022-09-01T18:18:17.193Z,99052.76
2022-09-01T18:23:51.618Z,99047.97
2022-09-01T18:26:40.402Z,99045.58
2022-09-01T18:29:30.680Z,99052.83
2022-09-01T18:32:51.682Z,99058.45
2022-09-01T18:35:47.993Z,99054.66
2022-09-01T18:38:43.864Z,99053.36
2022-09-01T18:41:55.374Z,99054.39
2022-09-01T18:44:57.569Z,99047.86
2022-09-01T18:48:04.282Z,99052.38
2022-09-01T18:51:00.570Z,99057.03
2022-09-01T18:53:54.048Z,99055.59
2022-09-01T18:56:54.033Z,99058.31
2022-09-01T18:59:59.859Z,99064.27
2022-09-01T19:03:02.435Z,99053.57
2022-09-01T19:06:18.257Z,99063.37
2022-09-01T19:12:29.185Z,99071.17
2022-09-01T19:15:35.161Z,99075.59
2022-09-01T19:18:31.764Z,99080.73
2022-09-01T19:21:24.817Z,99079.55
2022-09-01T19:24:15.369Z,99074.74
2022-09-01T19:27:03.935Z,99079.03
2022-09-01T19:29:57.215Z,99087.18
2022-09-01T19:32:44.984Z,99082.08
2022-09-01T19:35:34.697Z,99086.75
2022-09-01T19:38:27.902Z,99088.05
2022-09-01T19:41:21.185Z,99084.17
2022-09-01T19:44:28.360Z,99093.72
2022-09-01T19:47:37.071Z,99095.03
2022-09-01T19:50:28.991Z,99102.68
2022-09-01T19:53:28.481Z,99102.86
2022-09-01T19:56:21.760Z,99105.95
2022-09-01T19:59:25.368Z,99105.23
2022-09-01T20:02:35.143Z,99110.77
2022-09-01T20:05:30.168Z,99113.36
2022-09-01T20:08:26.840Z,99115.95
2022-09-01T20:11:23.848Z,99116.05
2022-09-01T20:14:34.271Z,99117.28
2022-09-01T20:17:30.953Z,99115.42
2022-09-01T20:20:26.927Z,99116.03
2022-09-01T20:23:36.260Z,99117.48
2022-09-01T20:26:33.104Z,99111.48
2022-09-01T20:29:32.656Z,99114.88
2022-09-01T20:32:24.896Z,99115.49
2022-09-01T20:38:35.447Z,99119.39
2022-09-01T20:41:27.984Z,99125.00
2022-09-01T20:44:24.976Z,99126.44
2022-09-01T20:47:14.154Z,99126.52
2022-09-01T20:50:02.817Z,99130.39
2022-09-01T20:52:55.946Z,99135.70
2022-09-01T20:55:52.313Z,99138.77
2022-09-01T20:58:44.974Z,99131.33
2022-09-01T21:01:41.168Z,99137.96
2022-09-01T21:05:01.784Z,99138.22
2022-09-01T21:08:10.069Z,99136.33
2022-09-01T21:11:03.128Z,99133.59
2022-09-01T21:14:02.263Z,99132.52
2022-09-01T21:17:10.633Z,99133.96
2022-09-01T21:20:04.248Z,99134.53
2022-09-01T21:22:55.666Z,99130.26
2022-09-01T21:25:45.720Z,99131.41
2022-09-01T21:28:33.296Z,99125.45
2022-09-01T21:31:21.675Z,99127.14
2022-09-01T21:34:08.976Z,99132.71
2022-09-01T21:36:56.383Z,99129.70
2022-09-01T21:39:44.248Z,99136.06
2022-09-01T21:45:37.829Z,99131.13
2022-09-01T21:48:25.399Z,99131.19
2022-09-01T21:51:12.738Z,99132.86
2022-09-01T21:54:00.137Z,99135.05
2022-09-01T21:56:47.655Z,99135.09
2022-09-01T21:59:35.320Z,99132.91
2022-09-01T22:02:22.771Z,99131.05
2022-09-01T22:05:12.064Z,99128.94
2022-09-01T22:08:00.098Z,99132.30
2022-09-01T22:10:49.785Z,99126.08
2022-09-01T22:13:37.993Z,99127.50
2022-09-01T22:16:25.698Z,99123.98
2022-09-01T22:19:13.473Z,99125.66
2022-09-01T22:22:00.952Z,99120.76
2022-09-01T22:24:48.313Z,99119.13
2022-09-01T22:27:35.672Z,99125.70
2022-09-01T22:30:23.093Z,99121.58
2022-09-01T22:33:13.141Z,99126.27
2022-09-01T22:36:00.768Z,99126.26
2022-09-01T22:38:48.072Z,99123.51
2022-09-01T22:41:36.457Z,99119.95
2022-09-01T22:44:24.408Z,99124.92
2022-09-01T22:47:12.168Z,99117.80
2022-09-01T22:49:59.440Z,99122.56
2022-09-01T22:52:47.033Z,99124.82
2022-09-01T22:55:39.383Z,99121.29
2022-09-01T22:58:28.369Z,99119.69
2022-09-01T23:01:19.254Z,99121.65
2022-09-01T23:04:08.608Z,99120.83
2022-09-01T23:06:56.280Z,99119.20
2022-09-01T23:09:43.439Z,99114.27
2022-09-01T23:12:31.241Z,99114.00
2022-09-01T23:15:18.985Z,99114.29
2022-09-01T23:18:06.305Z,99114.31
2022-09-01T23:20:53.579Z,99122.03
2022-09-01T23:23:42.271Z,99119.02
2022-09-01T23:26:30.896Z,99124.24
2022-09-01T23:29:18.464Z,99129.20
2022-09-01T23:32:05.992Z,99119.89
2022-09-01T23:34:53.760Z,99124.03
2022-09-01T23:37:40.784Z,99128.44
2022-09-01T23:40:28.233Z,99128.48
2022-09-01T23:43:17.588Z,99124.11
2022-09-01T23:46:05.785Z,99126.85
2022-09-01T23:48:54.328Z,99130.15
2022-09-01T23:51:42.626Z,99132.91
2022-09-01T23:54:29.953Z,99132.40
2022-09-01T23:57:17.465Z,99121.69
